Time;durP1;ratioP1;P1;durP2;ratioP2;P2;SDS_P1;SDS_P2;PMS_P1;PMS_P2;Temp;Humidity;BMP_temperature;BMP_pressure;BME280_temperature;BME280_humidity;BME280_pressure;Samples;Min_cycle;Max_cycle;Signal;HPM_P1;HPM_P2
2023/07/19 00:02:22;;;;;;;0.00;0.00;;;20.40;99.90;;;;;;5050453;28;20176;-62
2023/07/19 00:04:47;;;;;;;0.00;0.00;;;20.40;99.90;;;;;;5050813;28;20636;-62
2023/07/19 00:07:13;;;;;;;0.08;0.08;;;20.40;99.90;;;;;;5050607;28;20177;-62
2023/07/19 00:09:38;;;;;;;0.00;0.00;;;20.40;99.90;;;;;;5050418;28;20263;-62
2023/07/19 00:12:06;;;;;;;0.00;0.00;;;20.40;99.90;;;;;;5050521;28;20731;-62
2023/07/19 00:14:31;;;;;;;0.00;0.00;;;20.30;99.90;;;;;;5050149;28;20189;-62
2023/07/19 00:16:57;;;;;;;0.00;0.00;;;20.30;99.90;;;;;;5050495;28;20177;-62
2023/07/19 00:19:22;;;;;;;0.00;0.00;;;20.30;99.90;;;;;;5050300;28;20185;-62
2023/07/19 00:21:48;;;;;;;0.03;0.03;;;20.20;99.90;;;;;;5050413;28;20243;-62
2023/07/19 00:24:14;;;;;;;0.00;0.00;;;20.20;99.90;;;;;;5050373;28;20185;-62
2023/07/19 00:26:40;;;;;;;0.00;0.00;;;20.20;99.90;;;;;;5050633;28;20184;-62
2023/07/19 00:29:05;;;;;;;0.00;0.00;;;20.20;99.90;;;;;;5050259;28;20312;-62
2023/07/19 00:31:31;;;;;;;0.00;0.00;;;20.10;99.90;;;;;;5050174;28;20549;-62
2023/07/19 00:33:56;;;;;;;0.10;0.10;;;20.10;99.90;;;;;;5050051;28;20185;-62
2023/07/19 00:36:22;;;;;;;0.00;0.00;;;20.10;99.90;;;;;;5049884;28;20185;-62
2023/07/19 00:38:47;;;;;;;0.22;0.22;;;20.10;99.90;;;;;;5050094;28;20215;-62
2023/07/19 00:41:13;;;;;;;0.00;0.00;;;20.20;99.90;;;;;;5049949;28;20200;-62
2023/07/19 00:43:38;;;;;;;0.00;0.00;;;20.10;99.90;;;;;;5049515;28;20188;-62
2023/07/19 00:46:06;;;;;;;0.00;0.00;;;20.00;99.90;;;;;;5049496;28;20185;-62
2023/07/19 00:48:31;;;;;;;0.00;0.00;;;20.00;99.90;;;;;;5048969;28;20185;-62
2023/07/19 00:50:58;;;;;;;0.00;0.00;;;20.00;99.90;;;;;;5049621;28;20232;-62
2023/07/19 00:53:24;;;;;;;0.20;0.20;;;20.00;99.90;;;;;;5048375;28;20311;-62
2023/07/19 00:55:51;;;;;;;0.00;0.00;;;19.90;99.90;;;;;;5049869;28;20181;-62
2023/07/19 00:58:20;;;;;;;0.00;0.00;;;19.90;99.90;;;;;;5052048;28;20235;-63
2023/07/19 01:00:46;;;;;;;0.00;0.00;;;19.90;99.90;;;;;;5047828;28;20637;-63
2023/07/19 01:03:11;;;;;;;0.00;0.00;;;19.90;99.90;;;;;;5053695;28;20197;-63
2023/07/19 01:05:38;;;;;;;0.00;0.00;;;19.80;99.90;;;;;;5053771;28;20185;-62
2023/07/19 01:08:05;;;;;;;0.05;0.05;;;19.80;99.90;;;;;;5054207;28;20185;-62
2023/07/19 01:10:31;;;;;;;0.00;0.00;;;19.80;99.90;;;;;;5053436;28;20256;-62
2023/07/19 01:13:04;;;;;;;0.00;0.00;;;19.80;99.90;;;;;;5053634;28;20209;-62
2023/07/19 01:15:30;;;;;;;0.00;0.00;;;19.70;99.90;;;;;;5053328;28;20677;-62
2023/07/19 01:17:55;;;;;;;0.00;0.00;;;19.70;99.90;;;;;;5053133;28;20181;-62
2023/07/19 01:20:21;;;;;;;0.00;0.00;;;19.70;99.90;;;;;;5053468;28;20271;-62
2023/07/19 01:22:46;;;;;;;0.00;0.00;;;19.70;99.90;;;;;;5053137;28;20256;-62
2023/07/19 01:25:12;;;;;;;0.00;0.00;;;19.70;99.90;;;;;;5053049;28;20267;-62
2023/07/19 01:27:38;;;;;;;0.00;0.00;;;19.70;99.90;;;;;;5053752;28;20207;-62
2023/07/19 01:30:05;;;;;;;0.00;0.00;;;19.60;99.90;;;;;;5052218;28;20221;-62
2023/07/19 01:32:30;;;;;;;0.00;0.00;;;19.60;99.90;;;;;;5053128;28;20221;-62
2023/07/19 01:34:56;;;;;;;0.00;0.00;;;19.60;99.90;;;;;;5053346;28;20176;-62
2023/07/19 01:37:21;;;;;;;0.00;0.00;;;19.50;99.90;;;;;;5043265;28;20268;-62
2023/07/19 01:39:49;;;;;;;0.00;0.00;;;19.50;99.90;;;;;;5033573;28;20266;-63
2023/07/19 01:42:14;;;;;;;0.00;0.00;;;19.50;99.90;;;;;;5045973;28;20227;-63
2023/07/19 01:44:40;;;;;;;0.10;0.10;;;19.40;99.90;;;;;;5053073;28;20185;-62
2023/07/19 01:47:05;;;;;;;0.00;0.00;;;19.40;99.90;;;;;;5052848;28;20196;-62
2023/07/19 01:49:31;;;;;;;0.00;0.00;;;19.30;99.90;;;;;;5052186;28;20184;-62
2023/07/19 01:51:57;;;;;;;0.00;0.00;;;19.30;99.90;;;;;;5052031;28;20201;-63
2023/07/19 01:54:22;;;;;;;0.00;0.00;;;19.30;99.90;;;;;;5052426;28;20272;-63
2023/07/19 01:56:48;;;;;;;0.00;0.00;;;19.30;99.90;;;;;;5052874;28;20177;-63
2023/07/19 01:59:13;;;;;;;0.00;0.00;;;19.20;99.90;;;;;;5052308;28;20189;-63
2023/07/19 02:01:39;;;;;;;0.00;0.00;;;19.20;99.90;;;;;;5052963;28;20543;-62
2023/07/19 02:04:05;;;;;;;0.00;0.00;;;19.20;99.90;;;;;;5052681;28;20828;-62
2023/07/19 02:06:30;;;;;;;0.00;0.00;;;19.20;99.90;;;;;;5052500;28;20192;-63
2023/07/19 02:08:56;;;;;;;0.25;0.25;;;19.10;99.90;;;;;;5051852;28;20177;-63
2023/07/19 02:11:22;;;;;;;0.00;0.00;;;19.10;99.90;;;;;;5052534;28;20564;-63
2023/07/19 02:13:48;;;;;;;0.00;0.00;;;19.00;99.90;;;;;;5052567;28;20956;-63
2023/07/19 02:16:13;;;;;;;0.10;0.10;;;19.00;99.90;;;;;;5052565;28;20174;-63
2023/07/19 02:18:39;;;;;;;0.00;0.00;;;19.00;99.90;;;;;;5052444;28;20192;-63
2023/07/19 02:21:04;;;;;;;0.00;0.00;;;19.00;99.90;;;;;;5052593;28;20181;-63
2023/07/19 02:23:30;;;;;;;0.00;0.00;;;18.90;99.90;;;;;;5052091;28;20235;-63
2023/07/19 02:25:56;;;;;;;0.20;0.20;;;18.90;99.90;;;;;;5050910;28;20181;-63
2023/07/19 02:28:21;;;;;;;0.00;0.00;;;18.80;99.90;;;;;;5050930;28;20221;-62
2023/07/19 02:30:47;;;;;;;0.00;0.00;;;18.80;99.90;;;;;;5050972;28;20185;-63
2023/07/19 02:33:14;;;;;;;0.10;0.10;;;18.80;99.90;;;;;;5052449;28;20220;-62
2023/07/19 02:35:40;;;;;;;0.00;0.00;;;18.70;99.90;;;;;;5052160;28;20220;-62
2023/07/19 02:38:06;;;;;;;0.00;0.00;;;18.70;99.90;;;;;;5051730;28;20185;-62
2023/07/19 02:40:31;;;;;;;0.00;0.00;;;18.70;99.90;;;;;;5051945;28;20223;-62
2023/07/19 02:42:57;;;;;;;0.10;0.10;;;18.70;99.90;;;;;;5051841;28;20189;-63
2023/07/19 02:45:26;;;;;;;0.00;0.00;;;18.70;99.90;;;;;;5052043;28;20260;-62
2023/07/19 02:47:52;;;;;;;0.00;0.00;;;18.70;99.90;;;;;;5051370;28;20180;-63
2023/07/19 02:50:21;;;;;;;0.00;0.00;;;18.70;99.90;;;;;;5052298;28;20532;-63
2023/07/19 02:52:47;;;;;;;0.00;0.00;;;18.80;99.90;;;;;;5051627;28;20239;-63
2023/07/19 02:55:13;;;;;;;0.00;0.00;;;18.80;99.90;;;;;;5051507;28;20185;-63
2023/07/19 02:57:39;;;;;;;0.00;0.00;;;18.80;99.90;;;;;;5051588;28;20186;-62
2023/07/19 03:00:06;;;;;;;0.10;0.10;;;18.80;99.90;;;;;;5051464;28;20594;-62
2023/07/19 03:02:32;;;;;;;0.00;0.00;;;18.80;99.90;;;;;;5051419;28;20528;-62
2023/07/19 03:04:57;;;;;;;0.00;0.00;;;18.80;99.90;;;;;;5051379;28;20174;-62
2023/07/19 03:07:26;;;;;;;0.00;0.00;;;18.80;99.90;;;;;;5050380;28;20644;-63
2023/07/19 03:09:52;;;;;;;0.00;0.00;;;18.80;99.90;;;;;;5051188;28;20263;-62
2023/07/19 03:12:17;;;;;;;0.00;0.00;;;18.80;99.90;;;;;;5051469;28;20260;-62
2023/07/19 03:14:43;;;;;;;0.00;0.00;;;18.70;99.90;;;;;;5051481;28;20193;-62
2023/07/19 03:17:08;;;;;;;0.00;0.00;;;18.70;99.90;;;;;;5049878;28;20280;-62
2023/07/19 03:19:35;;;;;;;0.00;0.00;;;18.70;99.90;;;;;;5052340;28;20177;-61
2023/07/19 03:22:01;;;;;;;0.00;0.00;;;18.70;99.90;;;;;;5062929;28;20532;-61
2023/07/19 03:24:27;;;;;;;0.00;0.00;;;18.70;99.90;;;;;;5051047;28;20213;-61
2023/07/19 03:26:53;;;;;;;0.00;0.00;;;18.60;99.90;;;;;;5051217;28;20710;-62
2023/07/19 03:29:19;;;;;;;0.00;0.00;;;18.60;99.90;;;;;;5051127;28;20223;-62
2023/07/19 03:31:45;;;;;;;0.00;0.00;;;18.70;99.90;;;;;;5050313;28;20205;-62
2023/07/19 03:34:10;;;;;;;0.00;0.00;;;18.70;99.90;;;;;;5051482;28;20185;-61
2023/07/19 03:36:36;;;;;;;0.00;0.00;;;18.70;99.90;;;;;;5051201;28;20272;-61
2023/07/19 03:39:03;;;;;;;0.00;0.00;;;18.70;99.90;;;;;;5050631;28;20189;-62
2023/07/19 03:41:29;;;;;;;0.05;0.05;;;18.70;99.90;;;;;;5045191;28;20239;-61
2023/07/19 03:43:54;;;;;;;0.10;0.10;;;18.70;99.90;;;;;;5050698;28;20549;-63
2023/07/19 03:46:20;;;;;;;0.00;0.00;;;18.70;99.90;;;;;;5049314;28;20189;-64
2023/07/19 03:48:45;;;;;;;0.00;0.00;;;18.70;99.90;;;;;;5050493;28;20643;-65
2023/07/19 03:51:11;;;;;;;0.00;0.00;;;18.70;99.90;;;;;;5050206;28;20211;-64
2023/07/19 03:53:37;;;;;;;0.00;0.00;;;18.70;99.90;;;;;;5050694;28;20296;-64
2023/07/19 03:56:02;;;;;;;0.00;0.00;;;18.70;99.90;;;;;;5051107;28;20244;-62
2023/07/19 03:58:28;;;;;;;0.08;0.08;;;18.70;99.90;;;;;;5050547;28;20185;-65
2023/07/19 04:00:59;;;;;;;0.00;0.00;;;18.70;99.90;;;;;;5050565;28;20190;-62
2023/07/19 04:03:25;;;;;;;0.00;0.00;;;18.70;99.90;;;;;;5050140;28;20235;-63
2023/07/19 04:05:54;;;;;;;0.00;0.00;;;18.70;99.90;;;;;;5050194;28;20276;-62
2023/07/19 04:08:20;;;;;;;0.10;0.10;;;18.80;99.90;;;;;;5050366;28;20535;-63
2023/07/19 04:10:45;;;;;;;0.00;0.00;;;18.80;99.90;;;;;;5048268;28;20185;-63
2023/07/19 04:13:11;;;;;;;0.00;0.00;;;18.80;99.90;;;;;;5050618;28;20212;-63
2023/07/19 04:15:37;;;;;;;0.00;0.00;;;18.90;99.90;;;;;;5050734;28;20220;-62
2023/07/19 04:18:03;;;;;;;0.65;0.65;;;18.90;99.90;;;;;;5049234;28;20185;-62
2023/07/19 04:20:31;;;;;;;0.00;0.00;;;18.90;99.90;;;;;;5050041;28;20210;-62
2023/07/19 04:22:57;;;;;;;0.00;0.00;;;19.00;99.90;;;;;;5050001;28;20649;-62
2023/07/19 04:25:24;;;;;;;0.00;0.00;;;19.00;99.90;;;;;;5050517;28;20178;-62
2023/07/19 04:27:53;;;;;;;0.00;0.00;;;19.00;99.90;;;;;;5050375;28;20189;-62
2023/07/19 04:30:18;;;;;;;0.00;0.00;;;19.10;99.90;;;;;;5050329;28;20178;-62
2023/07/19 04:32:44;;;;;;;0.00;0.00;;;19.10;99.90;;;;;;5051342;28;20224;-62
2023/07/19 04:35:10;;;;;;;0.00;0.00;;;19.10;99.90;;;;;;5054340;28;20231;-62
2023/07/19 04:37:38;;;;;;;0.00;0.00;;;19.30;99.90;;;;;;5053015;28;20174;-62
2023/07/19 04:40:05;;;;;;;0.08;0.08;;;19.50;99.90;;;;;;5054282;28;20652;-62
2023/07/19 04:42:31;;;;;;;0.00;0.00;;;19.80;99.90;;;;;;5054227;28;20189;-62
2023/07/19 04:44:57;;;;;;;0.00;0.00;;;20.00;99.90;;;;;;5054166;28;20502;-62
2023/07/19 04:47:22;;;;;;;0.00;0.00;;;20.30;99.90;;;;;;5054430;28;20243;-62
2023/07/19 04:49:48;;;;;;;0.00;0.00;;;20.50;99.90;;;;;;5054175;28;20179;-62
2023/07/19 04:52:13;;;;;;;0.00;0.00;;;20.70;99.90;;;;;;5053873;28;20730;-63
2023/07/19 04:54:39;;;;;;;0.00;0.00;;;20.90;99.90;;;;;;5054293;28;20185;-62
2023/07/19 04:57:05;;;;;;;0.00;0.00;;;21.10;99.90;;;;;;5054180;28;20166;-62
2023/07/19 04:59:30;;;;;;;0.00;0.00;;;21.20;99.90;;;;;;5053961;28;20280;-62
2023/07/19 05:01:57;;;;;;;0.00;0.00;;;21.40;99.90;;;;;;5054084;28;20367;-62
2023/07/19 05:04:22;;;;;;;0.00;0.00;;;21.50;99.90;;;;;;5054020;28;20201;-62
2023/07/19 05:06:49;;;;;;;0.00;0.00;;;21.70;99.90;;;;;;5054215;28;20213;-62
2023/07/19 05:09:15;;;;;;;0.00;0.00;;;21.80;99.90;;;;;;5053975;28;20178;-61
2023/07/19 05:11:41;;;;;;;0.00;0.00;;;21.80;99.90;;;;;;5053873;28;20174;-62
2023/07/19 05:14:06;;;;;;;0.00;0.00;;;22.00;99.90;;;;;;5053937;28;20178;-61
2023/07/19 05:16:35;;;;;;;0.00;0.00;;;22.10;99.90;;;;;;5053868;28;20181;-61
2023/07/19 05:19:01;;;;;;;0.00;0.00;;;22.40;99.90;;;;;;5053898;28;20699;-61
2023/07/19 05:21:27;;;;;;;0.00;0.00;;;22.60;99.90;;;;;;5053845;28;20185;-61
2023/07/19 05:23:53;;;;;;;0.00;0.00;;;22.80;99.90;;;;;;5053784;28;20558;-62
2023/07/19 05:26:18;;;;;;;0.15;0.15;;;23.00;99.90;;;;;;5053626;28;20178;-61
2023/07/19 05:28:45;;;;;;;0.00;0.00;;;23.30;99.90;;;;;;5053605;28;20295;-61
2023/07/19 05:31:11;;;;;;;0.00;0.00;;;23.60;99.90;;;;;;5053586;28;20181;-61
2023/07/19 05:33:37;;;;;;;0.00;0.00;;;24.00;99.90;;;;;;5053296;28;20215;-61
2023/07/19 05:36:02;;;;;;;0.10;0.10;;;24.30;99.90;;;;;;5053469;28;20196;-61
2023/07/19 05:38:29;;;;;;;0.00;0.00;;;24.70;99.90;;;;;;5053363;28;20185;-61
2023/07/19 05:41:06;;;;;;;0.00;0.00;;;25.10;99.70;;;;;;5053291;28;20641;-61
2023/07/19 05:43:32;;;;;;;0.00;0.00;;;25.40;98.50;;;;;;5053026;28;20181;-61
2023/07/19 05:46:07;;;;;;;0.00;0.00;;;25.70;98.00;;;;;;5053186;28;20173;-62
2023/07/19 05:48:34;;;;;;;0.00;0.00;;;25.80;97.80;;;;;;5053016;28;20200;-62
2023/07/19 05:51:00;;;;;;;0.00;0.00;;;26.10;97.00;;;;;;5053360;28;20220;-62
2023/07/19 05:53:26;;;;;;;0.10;0.00;;;26.40;96.10;;;;;;5053355;28;20260;-62
2023/07/19 05:55:52;;;;;;;0.00;0.00;;;26.80;95.70;;;;;;5053645;28;20178;-61
2023/07/19 05:58:21;;;;;;;0.30;0.30;;;27.00;94.80;;;;;;5053351;28;20657;-61
2023/07/19 06:00:47;;;;;;;0.15;0.10;;;27.40;93.90;;;;;;5053298;28;20184;-62
2023/07/19 06:03:14;;;;;;;0.00;0.00;;;27.60;93.50;;;;;;5053359;28;20608;-62
2023/07/19 06:05:40;;;;;;;0.30;0.30;;;28.00;93.10;;;;;;5053250;28;20182;-62
2023/07/19 06:08:06;;;;;;;0.00;0.00;;;28.40;91.80;;;;;;5053234;28;20184;-62
2023/07/19 06:10:31;;;;;;;0.10;0.10;;;28.60;91.40;;;;;;5053274;28;20662;-62
2023/07/19 06:12:57;;;;;;;0.17;0.00;;;28.90;90.70;;;;;;5053156;28;20209;-64
2023/07/19 06:15:22;;;;;;;0.00;0.00;;;28.80;89.20;;;;;;5053082;28;20169;-62
2023/07/19 06:17:48;;;;;;;0.00;0.00;;;28.70;88.70;;;;;;5053010;28;20184;-62
2023/07/19 06:20:13;;;;;;;0.32;0.10;;;28.70;89.00;;;;;;5053126;28;20181;-61
2023/07/19 06:22:39;;;;;;;0.00;0.00;;;28.90;88.60;;;;;;5053180;28;20259;-62
2023/07/19 06:25:06;;;;;;;0.00;0.00;;;29.20;87.60;;;;;;5052930;28;20809;-62
2023/07/19 06:27:31;;;;;;;0.00;0.00;;;29.00;85.90;;;;;;5052961;28;20268;-61
2023/07/19 06:29:58;;;;;;;0.00;0.00;;;29.00;86.90;;;;;;5053044;28;20292;-62
2023/07/19 06:32:23;;;;;;;0.05;0.05;;;29.50;86.50;;;;;;5052952;28;20209;-62
2023/07/19 06:34:49;;;;;;;0.00;0.00;;;29.90;84.30;;;;;;5052980;28;20232;-62
2023/07/19 06:37:14;;;;;;;0.00;0.00;;;30.00;82.90;;;;;;5052924;28;20173;-61
2023/07/19 06:39:40;;;;;;;0.10;0.10;;;30.00;82.00;;;;;;5052957;28;20703;-62
2023/07/19 06:42:06;;;;;;;0.00;0.00;;;29.60;82.60;;;;;;5052636;28;20177;-62
2023/07/19 06:44:31;;;;;;;0.00;0.00;;;29.50;83.30;;;;;;5052636;28;20188;-62
2023/07/19 06:46:59;;;;;;;0.10;0.10;;;29.80;82.70;;;;;;5052816;28;20181;-62
2023/07/19 06:49:24;;;;;;;0.00;0.00;;;30.30;82.40;;;;;;5052635;28;20185;-62
2023/07/19 06:51:50;;;;;;;0.00;0.00;;;30.20;80.30;;;;;;5052574;28;20197;-62
2023/07/19 06:54:15;;;;;;;0.00;0.00;;;30.50;79.90;;;;;;5052498;28;20181;-62
2023/07/19 06:56:41;;;;;;;0.00;0.00;;;30.60;79.70;;;;;;5051997;28;20180;-62
2023/07/19 06:59:07;;;;;;;0.00;0.00;;;30.60;78.80;;;;;;5052483;28;20644;-62
2023/07/19 07:01:32;;;;;;;0.00;0.00;;;31.00;78.40;;;;;;5052351;28;20178;-62
2023/07/19 07:03:58;;;;;;;0.00;0.00;;;31.30;77.10;;;;;;5052326;28;20199;-62
2023/07/19 07:06:23;;;;;;;0.00;0.00;;;31.90;75.30;;;;;;5052481;28;20173;-62
2023/07/19 07:08:49;;;;;;;0.00;0.00;;;32.60;73.60;;;;;;5052247;28;20172;-62
2023/07/19 07:11:14;;;;;;;0.00;0.00;;;33.10;71.10;;;;;;5052301;28;20187;-62
2023/07/19 07:13:40;;;;;;;0.03;0.03;;;33.20;68.80;;;;;;5052181;28;20208;-62
2023/07/19 07:16:06;;;;;;;0.00;0.00;;;33.60;68.40;;;;;;5052187;28;20176;-62
2023/07/19 07:18:32;;;;;;;0.20;0.00;;;33.30;65.70;;;;;;5050922;28;20173;-62
2023/07/19 07:20:57;;;;;;;0.00;0.00;;;33.30;65.70;;;;;;5052071;28;20191;-62
2023/07/19 07:23:23;;;;;;;0.00;0.00;;;33.20;64.40;;;;;;5051998;28;20181;-62
2023/07/19 07:25:55;;;;;;;0.00;0.00;;;33.00;64.50;;;;;;5052000;28;20181;-62
2023/07/19 07:28:21;;;;;;;0.03;0.00;;;32.90;63.50;;;;;;5051766;28;20270;-62
2023/07/19 07:30:47;;;;;;;0.00;0.00;;;32.90;63.90;;;;;;5051962;28;20184;-62
2023/07/19 07:33:12;;;;;;;0.00;0.00;;;33.00;63.50;;;;;;5051857;28;20687;-62
2023/07/19 07:35:38;;;;;;;0.00;0.00;;;33.50;62.90;;;;;;5051836;28;20212;-62
2023/07/19 07:38:03;;;;;;;0.00;0.00;;;33.90;61.10;;;;;;5051875;28;20245;-62
2023/07/19 07:40:29;;;;;;;0.00;0.00;;;34.20;60.20;;;;;;5051638;28;20177;-62
2023/07/19 07:42:55;;;;;;;0.00;0.00;;;34.40;58.90;;;;;;5051788;28;20187;-62
2023/07/19 07:45:21;;;;;;;0.00;0.00;;;34.60;58.00;;;;;;5051581;28;20180;-62
2023/07/19 07:47:47;;;;;;;0.00;0.00;;;34.50;58.00;;;;;;5051672;28;20230;-63
2023/07/19 07:50:12;;;;;;;0.00;0.00;;;34.40;57.50;;;;;;5051624;28;20241;-62
2023/07/19 07:52:38;;;;;;;0.00;0.00;;;34.40;58.00;;;;;;5051517;28;20358;-62
2023/07/19 07:55:05;;;;;;;0.00;0.00;;;34.20;56.50;;;;;;5051626;28;20176;-62
2023/07/19 07:57:33;;;;;;;0.00;0.00;;;34.20;56.80;;;;;;5050261;28;20181;-62
2023/07/19 08:00:00;;;;;;;0.00;0.00;;;33.80;56.10;;;;;;5051631;28;20161;-62
2023/07/19 08:02:25;;;;;;;0.00;0.00;;;33.60;56.20;;;;;;5051281;28;20181;-62
2023/07/19 08:04:52;;;;;;;0.00;0.00;;;34.00;56.60;;;;;;5051347;28;20291;-62
2023/07/19 08:07:18;;;;;;;0.00;0.00;;;34.20;55.80;;;;;;5051338;28;20652;-61
2023/07/19 08:09:43;;;;;;;0.00;0.00;;;34.20;54.00;;;;;;5051478;28;20207;-61
2023/07/19 08:12:09;;;;;;;0.00;0.00;;;34.50;54.30;;;;;;5051268;28;20228;-61
2023/07/19 08:14:36;;;;;;;0.00;0.00;;;34.10;53.30;;;;;;5051363;28;20184;-62
2023/07/19 08:17:02;;;;;;;0.00;0.00;;;34.10;53.40;;;;;;5051294;28;20549;-61
2023/07/19 08:19:27;;;;;;;0.00;0.00;;;34.00;54.50;;;;;;5051269;28;20180;-62
2023/07/19 08:21:58;;;;;;;0.00;0.00;;;34.10;54.40;;;;;;5051443;28;20215;-62
2023/07/19 08:24:24;;;;;;;0.00;0.00;;;34.60;53.00;;;;;;5051198;28;20263;-62
2023/07/19 08:26:49;;;;;;;0.00;0.00;;;35.10;51.60;;;;;;5051303;28;20169;-61
2023/07/19 08:29:15;;;;;;;0.00;0.00;;;35.40;50.80;;;;;;5051072;28;20683;-61
2023/07/19 08:31:42;;;;;;;0.00;0.00;;;35.50;51.00;;;;;;5051204;28;20184;-61
2023/07/19 08:34:07;;;;;;;0.15;0.15;;;35.80;49.90;;;;;;5051065;28;20215;-61
2023/07/19 08:36:33;;;;;;;0.00;0.00;;;35.90;48.90;;;;;;5051052;28;20177;-62
2023/07/19 08:38:59;;;;;;;0.00;0.00;;;35.80;49.90;;;;;;5051186;28;20284;-61
2023/07/19 08:41:29;;;;;;;0.00;0.00;;;36.10;48.50;;;;;;5050960;28;20189;-61
2023/07/19 08:43:55;;;;;;;0.00;0.00;;;36.20;47.80;;;;;;5051227;28;20218;-62
2023/07/19 08:46:21;;;;;;;0.00;0.00;;;36.00;48.30;;;;;;5051049;28;20196;-61
2023/07/19 08:48:48;;;;;;;0.10;0.10;;;35.70;47.90;;;;;;5051083;28;20181;-61
2023/07/19 08:51:15;;;;;;;0.00;0.00;;;35.60;49.70;;;;;;5051018;28;20248;-61
2023/07/19 08:53:41;;;;;;;0.00;0.00;;;35.10;46.30;;;;;;5050876;28;20801;-62
2023/07/19 08:56:07;;;;;;;0.00;0.00;;;34.70;47.30;;;;;;5050913;28;20177;-61
2023/07/19 08:58:39;;;;;;;0.00;0.00;;;34.60;47.70;;;;;;5050883;28;20287;-61
2023/07/19 09:01:05;;;;;;;0.00;0.00;;;34.20;48.70;;;;;;5050882;28;20207;-61
2023/07/19 09:03:31;;;;;;;0.00;0.00;;;33.90;50.50;;;;;;5050805;28;20177;-61
2023/07/19 09:05:56;;;;;;;0.00;0.00;;;34.20;49.70;;;;;;5050989;28;20227;-61
2023/07/19 09:08:35;;;;;;;0.00;0.00;;;34.30;48.60;;;;;;5050749;28;20181;-61
2023/07/19 09:11:00;;;;;;;0.10;0.10;;;34.50;48.70;;;;;;5050822;28;20177;-61
2023/07/19 09:13:26;;;;;;;0.00;0.00;;;34.50;48.80;;;;;;5050604;28;20224;-61
2023/07/19 09:15:51;;;;;;;0.00;0.00;;;34.70;48.20;;;;;;5050854;28;20205;-61
2023/07/19 09:18:17;;;;;;;0.00;0.00;;;34.70;48.00;;;;;;5051053;28;20666;-61
2023/07/19 09:20:43;;;;;;;0.00;0.00;;;34.90;47.20;;;;;;5054394;28;20687;-61
2023/07/19 09:23:08;;;;;;;0.00;0.00;;;35.40;47.50;;;;;;5054111;28;20667;-61
2023/07/19 09:25:51;;;;;;;0.00;0.00;;;35.80;46.10;;;;;;5054245;28;20177;-61
2023/07/19 09:28:21;;;;;;;0.00;0.00;;;36.10;44.30;;;;;;5054150;28;20228;-62
2023/07/19 09:31:05;;;;;;;0.00;0.00;;;36.20;45.70;;;;;;5054254;28;20181;-61
2023/07/19 09:33:31;;;;;;;0.00;0.00;;;36.20;42.70;;;;;;5054082;28;20212;-61
2023/07/19 09:35:57;;;;;;;0.00;0.00;;;35.90;43.60;;;;;;5054193;28;20219;-61
2023/07/19 09:38:23;;;;;;;0.00;0.00;;;36.10;43.50;;;;;;5054067;28;20181;-61
2023/07/19 09:40:51;;;;;;;0.00;0.00;;;35.90;42.90;;;;;;5054149;28;20169;-61
2023/07/19 09:43:17;;;;;;;0.00;0.00;;;35.70;42.30;;;;;;5054013;28;20268;-61
2023/07/19 09:45:45;;;;;;;0.00;0.00;;;35.10;41.50;;;;;;5053857;28;20181;-61
2023/07/19 09:48:11;;;;;;;0.00;0.00;;;35.00;41.50;;;;;;5053853;28;20246;-61
2023/07/19 09:50:40;;;;;;;0.00;0.00;;;35.20;43.70;;;;;;5053826;28;20636;-61
2023/07/19 09:53:10;;;;;;;0.00;0.00;;;35.40;43.00;;;;;;5053632;28;20274;-61
2023/07/19 09:55:36;;;;;;;0.00;0.00;;;35.00;43.10;;;;;;5053894;28;20623;-61
2023/07/19 09:58:03;;;;;;;0.00;0.00;;;35.00;42.70;;;;;;5053809;28;20263;-61
2023/07/19 10:00:29;;;;;;;0.08;0.08;;;35.00;41.10;;;;;;5053521;28;20181;-61
2023/07/19 10:02:54;;;;;;;0.00;0.00;;;34.90;39.10;;;;;;5053723;28;20268;-61
2023/07/19 10:05:28;;;;;;;0.00;0.00;;;34.40;39.50;;;;;;5053400;28;20638;-61
2023/07/19 10:07:53;;;;;;;0.00;0.00;;;34.30;42.40;;;;;;5053615;28;20651;-61
2023/07/19 10:10:20;;;;;;;0.13;0.10;;;34.10;42.40;;;;;;5053471;28;20169;-61
2023/07/19 10:12:47;;;;;;;0.00;0.00;;;34.00;42.50;;;;;;5053373;28;20208;-61
2023/07/19 10:15:14;;;;;;;0.00;0.00;;;34.20;43.20;;;;;;5053301;28;20184;-61
2023/07/19 10:17:41;;;;;;;0.00;0.00;;;34.50;43.10;;;;;;5053460;28;20272;-61
2023/07/19 10:20:08;;;;;;;1.08;0.10;;;34.60;42.30;;;;;;5053216;28;20184;-61
2023/07/19 10:22:56;;;;;;;0.00;0.00;;;34.80;41.30;;;;;;5053052;28;20187;-61
2023/07/19 10:25:22;;;;;;;0.00;0.00;;;34.80;41.10;;;;;;5053112;28;20211;-61
2023/07/19 10:27:59;;;;;;;0.00;0.00;;;34.80;41.50;;;;;;5052950;28;20177;-61
2023/07/19 10:30:43;;;;;;;0.00;0.00;;;34.80;42.30;;;;;;5051899;28;20193;-61
2023/07/19 10:33:13;;;;;;;0.00;0.00;;;34.80;41.70;;;;;;5053032;28;20227;-61
2023/07/19 10:35:40;;;;;;;0.00;0.00;;;34.80;40.80;;;;;;5053073;28;20177;-61
2023/07/19 10:38:12;;;;;;;0.00;0.00;;;34.60;41.20;;;;;;5052933;28;20238;-61
2023/07/19 10:40:38;;;;;;;0.00;0.00;;;34.60;41.60;;;;;;5053058;28;20183;-61
2023/07/19 10:43:04;;;;;;;0.00;0.00;;;34.40;41.40;;;;;;5052890;28;20797;-61
2023/07/19 10:45:29;;;;;;;0.00;0.00;;;34.40;40.60;;;;;;5052701;28;20204;-62
2023/07/19 10:47:59;;;;;;;0.00;0.00;;;34.30;42.30;;;;;;5052748;28;20177;-61
2023/07/19 10:50:25;;;;;;;0.00;0.00;;;33.60;41.80;;;;;;5052574;28;20242;-61
2023/07/19 10:52:51;;;;;;;0.03;0.03;;;33.20;42.30;;;;;;5052675;28;20231;-61
2023/07/19 10:55:16;;;;;;;0.00;0.00;;;32.70;41.70;;;;;;5052614;28;20185;-61
2023/07/19 10:57:42;;;;;;;0.00;0.00;;;32.70;43.90;;;;;;5052636;28;20173;-61
2023/07/19 11:00:15;;;;;;;0.00;0.00;;;32.80;44.30;;;;;;5052443;28;20207;-61
2023/07/19 11:02:40;;;;;;;0.00;0.00;;;33.00;45.50;;;;;;5052503;28;20189;-62
2023/07/19 11:05:07;;;;;;;0.00;0.00;;;33.20;45.50;;;;;;5052371;28;20703;-61
2023/07/19 11:07:33;;;;;;;0.00;0.00;;;33.30;44.30;;;;;;5052319;28;20672;-62
2023/07/19 11:10:01;;;;;;;0.00;0.00;;;33.10;44.80;;;;;;5052440;28;20185;-61
2023/07/19 11:12:27;;;;;;;0.00;0.00;;;33.20;45.00;;;;;;5052061;28;20208;-62
2023/07/19 11:15:01;;;;;;;0.00;0.00;;;33.50;44.50;;;;;;5052168;28;20671;-61
2023/07/19 11:17:30;;;;;;;0.00;0.00;;;33.70;44.70;;;;;;5052068;28;20265;-62
2023/07/19 11:19:59;;;;;;;0.00;0.00;;;33.30;43.70;;;;;;5052291;28;20177;-62
2023/07/19 11:22:27;;;;;;;0.00;0.00;;;33.40;44.30;;;;;;5051910;28;20173;-62
2023/07/19 11:24:53;;;;;;;0.00;0.00;;;33.70;43.50;;;;;;5052235;28;20177;-61
2023/07/19 11:27:38;;;;;;;0.00;0.00;;;33.70;43.50;;;;;;5052024;28;20177;-62
2023/07/19 11:30:05;;;;;;;0.00;0.00;;;33.60;43.60;;;;;;5051945;28;20271;-62
2023/07/19 11:32:31;;;;;;;0.00;0.00;;;33.60;44.30;;;;;;5051768;28;20251;-62
2023/07/19 11:34:58;;;;;;;0.00;0.00;;;33.70;43.90;;;;;;5051953;28;20608;-62
2023/07/19 11:37:24;;;;;;;0.00;0.00;;;33.80;44.00;;;;;;5051873;28;20176;-62
2023/07/19 11:39:51;;;;;;;0.00;0.00;;;34.10;44.10;;;;;;5051796;28;20656;-62
2023/07/19 11:42:45;;;;;;;0.00;0.00;;;34.40;44.50;;;;;;5051464;28;20675;-62
2023/07/19 11:45:12;;;;;;;0.00;0.00;;;34.70;42.90;;;;;;5051630;28;20538;-62
2023/07/19 11:47:39;;;;;;;0.00;0.00;;;34.60;41.80;;;;;;5051625;28;20200;-62
2023/07/19 11:50:06;;;;;;;0.00;0.00;;;34.30;41.40;;;;;;5051718;28;20189;-61
2023/07/19 11:52:47;;;;;;;0.00;0.00;;;34.20;42.20;;;;;;5051471;28;20299;-61
2023/07/19 11:55:14;;;;;;;0.00;0.00;;;34.10;41.40;;;;;;5051514;28;20180;-61
2023/07/19 11:57:40;;;;;;;0.00;0.00;;;33.80;43.50;;;;;;5051561;28;20632;-62
2023/07/19 12:00:10;;;;;;;0.00;0.00;;;33.40;43.20;;;;;;5051511;28;20258;-61
2023/07/19 12:02:37;;;;;;;0.00;0.00;;;32.90;43.80;;;;;;5051672;28;20177;-61
2023/07/19 12:05:05;;;;;;;0.00;0.00;;;32.40;44.60;;;;;;5051467;28;20566;-61
2023/07/19 12:07:32;;;;;;;0.00;0.00;;;32.00;45.20;;;;;;5051384;28;20177;-62
2023/07/19 12:10:02;;;;;;;0.00;0.00;;;31.70;46.20;;;;;;5051444;28;20177;-61
2023/07/19 12:12:28;;;;;;;0.00;0.00;;;31.70;48.00;;;;;;5051214;28;20266;-61
2023/07/19 12:14:53;;;;;;;0.00;0.00;;;32.10;47.50;;;;;;5051352;28;20177;-61
2023/07/19 12:17:19;;;;;;;0.00;0.00;;;32.50;46.30;;;;;;5050080;28;20181;-61
2023/07/19 12:19:44;;;;;;;0.00;0.00;;;32.50;45.90;;;;;;5051307;28;20207;-61
2023/07/19 12:22:10;;;;;;;0.00;0.00;;;32.30;46.40;;;;;;5051341;28;20243;-61
2023/07/19 12:24:35;;;;;;;0.00;0.00;;;32.00;46.70;;;;;;5051307;28;20173;-61
2023/07/19 12:27:01;;;;;;;0.00;0.00;;;31.70;46.90;;;;;;5051296;28;20177;-61
2023/07/19 12:29:27;;;;;;;0.00;0.00;;;31.80;48.60;;;;;;5051042;28;20237;-61
2023/07/19 12:31:52;;;;;;;0.00;0.00;;;32.00;47.60;;;;;;5051261;28;20177;-62
2023/07/19 12:34:20;;;;;;;0.00;0.00;;;32.00;47.50;;;;;;5051256;28;20177;-61
2023/07/19 12:36:50;;;;;;;0.00;0.00;;;31.90;47.80;;;;;;5051150;28;20174;-61
2023/07/19 12:39:17;;;;;;;0.00;0.00;;;31.60;48.10;;;;;;5051014;28;20276;-61
2023/07/19 12:41:44;;;;;;;0.00;0.00;;;31.50;49.00;;;;;;5051139;28;20259;-61
2023/07/19 12:44:09;;;;;;;0.00;0.00;;;31.20;50.30;;;;;;5051067;28;20181;-61
2023/07/19 12:46:35;;;;;;;0.00;0.00;;;31.10;51.00;;;;;;5050997;28;20178;-61